« Back
NWS Peachtree City, Ga » Text Product » MCN Terminal Aerodrome Forecast


Printer-friendly Version
Current Version              Previous Versions:   1  2  3  4  5  6  7  8  9  

Terminal Aerodrome Forecast

896
FTUS42 KFFC 041731
TAFMCN
TAF
KMCN 041731Z 0418/0518 23008KT P6SM BKN025
     FM042000 22010G18KT P6SM SCT020 BKN045
     FM050600 21008KT 4SM BR BKN007
     FM051200 23008KT 4SM -RA BR BKN007=

USA.gov is the U.S. government's official web portal to all federal, state and local government web resources and services.